sensor_id;sensor_type;location;lat;lon;timestamp;P1;durP1;ratioP1;P2;durP2;ratioP2
17650;SDS011;26663;59.302;18.082;2023-05-10T00:01:53;11.90;;;5.25;;
17650;SDS011;26663;59.302;18.082;2023-05-10T00:04:59;16.50;;;5.60;;
17650;SDS011;26663;59.302;18.082;2023-05-10T00:08:05;10.65;;;4.80;;
17650;SDS011;26663;59.302;18.082;2023-05-10T00:11:10;11.25;;;4.88;;
17650;SDS011;26663;59.302;18.082;2023-05-10T00:14:15;14.25;;;5.68;;
17650;SDS011;26663;59.302;18.082;2023-05-10T00:17:21;10.88;;;5.38;;
17650;SDS011;26663;59.302;18.082;2023-05-10T00:20:27;10.25;;;5.03;;
17650;SDS011;26663;59.302;18.082;2023-05-10T00:23:32;15.43;;;5.80;;
17650;SDS011;26663;59.302;18.082;2023-05-10T00:26:37;19.52;;;5.15;;
17650;SDS011;26663;59.302;18.082;2023-05-10T00:29:45;10.77;;;5.63;;
17650;SDS011;26663;59.302;18.082;2023-05-10T00:32:50;7.55;;;5.25;;
17650;SDS011;26663;59.302;18.082;2023-05-10T00:35:56;7.38;;;5.78;;
17650;SDS011;26663;59.302;18.082;2023-05-10T00:39:01;8.35;;;4.82;;
17650;SDS011;26663;59.302;18.082;2023-05-10T00:42:08;10.93;;;5.03;;
17650;SDS011;26663;59.302;18.082;2023-05-10T00:45:13;12.55;;;5.57;;
17650;SDS011;26663;59.302;18.082;2023-05-10T00:48:18;18.20;;;5.97;;
17650;SDS011;26663;59.302;18.082;2023-05-10T00:51:25;23.75;;;6.05;;
17650;SDS011;26663;59.302;18.082;2023-05-10T00:54:30;21.17;;;6.13;;
17650;SDS011;26663;59.302;18.082;2023-05-10T00:57:35;14.32;;;5.60;;
17650;SDS011;26663;59.302;18.082;2023-05-10T01:00:42;9.48;;;5.75;;
17650;SDS011;26663;59.302;18.082;2023-05-10T01:03:47;13.48;;;5.70;;
17650;SDS011;26663;59.302;18.082;2023-05-10T01:06:54;15.15;;;5.30;;
17650;SDS011;26663;59.302;18.082;2023-05-10T01:09:59;15.43;;;6.57;;
17650;SDS011;26663;59.302;18.082;2023-05-10T01:13:04;17.08;;;5.68;;
17650;SDS011;26663;59.302;18.082;2023-05-10T01:16:10;11.65;;;5.97;;
17650;SDS011;26663;59.302;18.082;2023-05-10T01:19:16;9.00;;;5.93;;
17650;SDS011;26663;59.302;18.082;2023-05-10T01:22:30;7.35;;;5.63;;
17650;SDS011;26663;59.302;18.082;2023-05-10T01:25:55;8.20;;;5.63;;
17650;SDS011;26663;59.302;18.082;2023-05-10T01:33:18;8.82;;;6.25;;
17650;SDS011;26663;59.302;18.082;2023-05-10T01:36:26;17.80;;;6.40;;
17650;SDS011;26663;59.302;18.082;2023-05-10T01:39:37;6.43;;;5.60;;
17650;SDS011;26663;59.302;18.082;2023-05-10T01:42:48;8.23;;;5.85;;
17650;SDS011;26663;59.302;18.082;2023-05-10T01:45:59;7.78;;;6.18;;
17650;SDS011;26663;59.302;18.082;2023-05-10T01:49:09;9.20;;;5.80;;
17650;SDS011;26663;59.302;18.082;2023-05-10T01:55:48;11.68;;;5.82;;
17650;SDS011;26663;59.302;18.082;2023-05-10T01:58:55;13.38;;;6.32;;
17650;SDS011;26663;59.302;18.082;2023-05-10T02:02:01;22.02;;;6.10;;
17650;SDS011;26663;59.302;18.082;2023-05-10T02:05:09;11.88;;;6.38;;
17650;SDS011;26663;59.302;18.082;2023-05-10T02:08:16;13.13;;;5.78;;
17650;SDS011;26663;59.302;18.082;2023-05-10T02:11:22;10.95;;;6.30;;
17650;SDS011;26663;59.302;18.082;2023-05-10T02:14:27;12.65;;;6.78;;
17650;SDS011;26663;59.302;18.082;2023-05-10T02:17:35;9.70;;;5.80;;
17650;SDS011;26663;59.302;18.082;2023-05-10T02:20:43;11.07;;;5.72;;
17650;SDS011;26663;59.302;18.082;2023-05-10T02:23:50;9.57;;;6.05;;
17650;SDS011;26663;59.302;18.082;2023-05-10T02:26:56;11.20;;;6.03;;
17650;SDS011;26663;59.302;18.082;2023-05-10T02:30:02;7.45;;;5.93;;
17650;SDS011;26663;59.302;18.082;2023-05-10T02:33:09;11.60;;;6.35;;
17650;SDS011;26663;59.302;18.082;2023-05-10T02:36:16;6.80;;;5.97;;
17650;SDS011;26663;59.302;18.082;2023-05-10T02:39:22;6.53;;;5.93;;
17650;SDS011;26663;59.302;18.082;2023-05-10T02:42:27;12.30;;;6.10;;
17650;SDS011;26663;59.302;18.082;2023-05-10T02:45:35;7.30;;;6.15;;
17650;SDS011;26663;59.302;18.082;2023-05-10T02:48:42;12.93;;;6.22;;
17650;SDS011;26663;59.302;18.082;2023-05-10T02:51:49;9.77;;;6.60;;
17650;SDS011;26663;59.302;18.082;2023-05-10T02:54:58;7.65;;;5.60;;
17650;SDS011;26663;59.302;18.082;2023-05-10T02:58:06;9.27;;;6.05;;
17650;SDS011;26663;59.302;18.082;2023-05-10T03:01:11;13.20;;;6.38;;
17650;SDS011;26663;59.302;18.082;2023-05-10T03:04:16;11.52;;;6.18;;
17650;SDS011;26663;59.302;18.082;2023-05-10T03:07:23;11.15;;;6.75;;
17650;SDS011;26663;59.302;18.082;2023-05-10T03:10:29;7.75;;;6.50;;
17650;SDS011;26663;59.302;18.082;2023-05-10T03:13:39;9.60;;;6.20;;
17650;SDS011;26663;59.302;18.082;2023-05-10T03:16:51;7.50;;;5.80;;
17650;SDS011;26663;59.302;18.082;2023-05-10T03:20:03;13.15;;;5.88;;
17650;SDS011;26663;59.302;18.082;2023-05-10T03:23:17;8.73;;;6.53;;
17650;SDS011;26663;59.302;18.082;2023-05-10T03:26:29;8.07;;;5.78;;
17650;SDS011;26663;59.302;18.082;2023-05-10T03:29:42;8.88;;;6.18;;
17650;SDS011;26663;59.302;18.082;2023-05-10T03:32:49;9.45;;;6.60;;
17650;SDS011;26663;59.302;18.082;2023-05-10T03:35:55;12.48;;;6.40;;
17650;SDS011;26663;59.302;18.082;2023-05-10T03:39:02;11.13;;;6.85;;
17650;SDS011;26663;59.302;18.082;2023-05-10T03:42:09;12.35;;;6.65;;
17650;SDS011;26663;59.302;18.082;2023-05-10T03:45:15;8.93;;;6.22;;
17650;SDS011;26663;59.302;18.082;2023-05-10T03:48:20;13.52;;;6.47;;
17650;SDS011;26663;59.302;18.082;2023-05-10T03:51:26;9.85;;;6.30;;
17650;SDS011;26663;59.302;18.082;2023-05-10T03:54:33;12.05;;;6.90;;
17650;SDS011;26663;59.302;18.082;2023-05-10T03:57:38;9.55;;;6.10;;
17650;SDS011;26663;59.302;18.082;2023-05-10T04:00:43;7.85;;;6.55;;
17650;SDS011;26663;59.302;18.082;2023-05-10T04:03:49;11.98;;;6.38;;
17650;SDS011;26663;59.302;18.082;2023-05-10T04:06:54;16.33;;;6.30;;
17650;SDS011;26663;59.302;18.082;2023-05-10T04:10:01;13.02;;;6.75;;
17650;SDS011;26663;59.302;18.082;2023-05-10T04:13:08;9.45;;;5.60;;
17650;SDS011;26663;59.302;18.082;2023-05-10T04:16:14;7.75;;;6.15;;
17650;SDS011;26663;59.302;18.082;2023-05-10T04:19:19;6.70;;;6.00;;
17650;SDS011;26663;59.302;18.082;2023-05-10T04:22:24;10.15;;;5.80;;
17650;SDS011;26663;59.302;18.082;2023-05-10T04:25:33;8.90;;;5.32;;
17650;SDS011;26663;59.302;18.082;2023-05-10T04:28:38;7.93;;;5.72;;
17650;SDS011;26663;59.302;18.082;2023-05-10T04:31:43;5.78;;;5.10;;
17650;SDS011;26663;59.302;18.082;2023-05-10T04:34:49;6.05;;;5.53;;
17650;SDS011;26663;59.302;18.082;2023-05-10T04:37:55;7.70;;;5.22;;
17650;SDS011;26663;59.302;18.082;2023-05-10T04:41:05;11.25;;;5.35;;
17650;SDS011;26663;59.302;18.082;2023-05-10T04:44:10;6.80;;;5.80;;
17650;SDS011;26663;59.302;18.082;2023-05-10T04:47:16;12.98;;;5.88;;
17650;SDS011;26663;59.302;18.082;2023-05-10T04:50:21;5.90;;;4.72;;
17650;SDS011;26663;59.302;18.082;2023-05-10T04:53:26;12.68;;;5.43;;
17650;SDS011;26663;59.302;18.082;2023-05-10T04:56:33;16.00;;;5.70;;
17650;SDS011;26663;59.302;18.082;2023-05-10T04:59:38;9.18;;;5.10;;
17650;SDS011;26663;59.302;18.082;2023-05-10T05:02:43;11.23;;;5.18;;
17650;SDS011;26663;59.302;18.082;2023-05-10T05:05:49;8.02;;;4.90;;
17650;SDS011;26663;59.302;18.082;2023-05-10T05:08:53;6.95;;;4.70;;
17650;SDS011;26663;59.302;18.082;2023-05-10T05:12:00;8.63;;;5.38;;
17650;SDS011;26663;59.302;18.082;2023-05-10T05:15:06;7.00;;;4.70;;
17650;SDS011;26663;59.302;18.082;2023-05-10T05:18:12;5.35;;;4.82;;
17650;SDS011;26663;59.302;18.082;2023-05-10T05:21:17;9.50;;;4.95;;
17650;SDS011;26663;59.302;18.082;2023-05-10T05:24:24;5.60;;;4.95;;
17650;SDS011;26663;59.302;18.082;2023-05-10T05:27:30;8.15;;;4.68;;
17650;SDS011;26663;59.302;18.082;2023-05-10T05:30:36;8.18;;;4.32;;
17650;SDS011;26663;59.302;18.082;2023-05-10T05:33:42;6.63;;;4.45;;
17650;SDS011;26663;59.302;18.082;2023-05-10T05:36:47;9.93;;;5.07;;
17650;SDS011;26663;59.302;18.082;2023-05-10T05:39:52;6.43;;;4.60;;
17650;SDS011;26663;59.302;18.082;2023-05-10T05:42:59;7.00;;;5.32;;
17650;SDS011;26663;59.302;18.082;2023-05-10T05:46:05;6.97;;;4.32;;
17650;SDS011;26663;59.302;18.082;2023-05-10T05:49:10;6.10;;;4.32;;
17650;SDS011;26663;59.302;18.082;2023-05-10T05:52:16;8.18;;;3.90;;
17650;SDS011;26663;59.302;18.082;2023-05-10T05:55:22;8.15;;;4.60;;
17650;SDS011;26663;59.302;18.082;2023-05-10T05:58:30;4.10;;;3.80;;
17650;SDS011;26663;59.302;18.082;2023-05-10T06:01:35;10.55;;;4.32;;
17650;SDS011;26663;59.302;18.082;2023-05-10T06:04:41;22.20;;;5.97;;
17650;SDS011;26663;59.302;18.082;2023-05-10T06:07:46;10.02;;;4.97;;
17650;SDS011;26663;59.302;18.082;2023-05-10T06:10:51;13.75;;;5.43;;
17650;SDS011;26663;59.302;18.082;2023-05-10T06:13:58;11.00;;;4.88;;
17650;SDS011;26663;59.302;18.082;2023-05-10T06:17:04;13.63;;;5.40;;
17650;SDS011;26663;59.302;18.082;2023-05-10T06:20:13;14.88;;;4.63;;
17650;SDS011;26663;59.302;18.082;2023-05-10T06:23:18;14.02;;;4.88;;
17650;SDS011;26663;59.302;18.082;2023-05-10T06:26:24;5.60;;;4.00;;
17650;SDS011;26663;59.302;18.082;2023-05-10T06:29:31;11.57;;;5.10;;
17650;SDS011;26663;59.302;18.082;2023-05-10T06:32:37;5.13;;;4.05;;
17650;SDS011;26663;59.302;18.082;2023-05-10T06:35:42;13.00;;;5.05;;
17650;SDS011;26663;59.302;18.082;2023-05-10T06:38:47;13.30;;;5.07;;
17650;SDS011;26663;59.302;18.082;2023-05-10T06:41:54;11.70;;;4.80;;
17650;SDS011;26663;59.302;18.082;2023-05-10T06:45:00;12.95;;;4.70;;
17650;SDS011;26663;59.302;18.082;2023-05-10T06:48:05;10.88;;;4.30;;
17650;SDS011;26663;59.302;18.082;2023-05-10T06:51:11;13.32;;;4.22;;
17650;SDS011;26663;59.302;18.082;2023-05-10T06:54:16;5.88;;;4.32;;
17650;SDS011;26663;59.302;18.082;2023-05-10T06:57:22;7.70;;;4.50;;
17650;SDS011;26663;59.302;18.082;2023-05-10T07:00:33;11.02;;;4.13;;
17650;SDS011;26663;59.302;18.082;2023-05-10T07:03:42;5.38;;;4.13;;
17650;SDS011;26663;59.302;18.082;2023-05-10T07:06:47;24.55;;;4.90;;
17650;SDS011;26663;59.302;18.082;2023-05-10T07:09:53;7.47;;;3.80;;
17650;SDS011;26663;59.302;18.082;2023-05-10T07:12:59;13.60;;;4.93;;
17650;SDS011;26663;59.302;18.082;2023-05-10T07:16:06;12.00;;;4.13;;
17650;SDS011;26663;59.302;18.082;2023-05-10T07:19:11;15.70;;;4.00;;
17650;SDS011;26663;59.302;18.082;2023-05-10T07:22:17;6.80;;;3.58;;
17650;SDS011;26663;59.302;18.082;2023-05-10T07:25:23;8.63;;;4.10;;
17650;SDS011;26663;59.302;18.082;2023-05-10T07:28:28;12.55;;;4.00;;
17650;SDS011;26663;59.302;18.082;2023-05-10T07:31:35;9.65;;;4.03;;
17650;SDS011;26663;59.302;18.082;2023-05-10T07:34:41;12.50;;;4.72;;
17650;SDS011;26663;59.302;18.082;2023-05-10T07:37:46;10.15;;;3.67;;
17650;SDS011;26663;59.302;18.082;2023-05-10T07:40:52;6.45;;;3.28;;
17650;SDS011;26663;59.302;18.082;2023-05-10T07:43:57;9.38;;;3.78;;
17650;SDS011;26663;59.302;18.082;2023-05-10T07:47:03;9.00;;;3.92;;
17650;SDS011;26663;59.302;18.082;2023-05-10T07:50:11;14.77;;;4.13;;
17650;SDS011;26663;59.302;18.082;2023-05-10T07:53:16;10.80;;;3.88;;
17650;SDS011;26663;59.302;18.082;2023-05-10T07:56:23;7.95;;;3.63;;
17650;SDS011;26663;59.302;18.082;2023-05-10T07:59:30;5.10;;;3.72;;
17650;SDS011;26663;59.302;18.082;2023-05-10T08:02:36;6.05;;;3.90;;
17650;SDS011;26663;59.302;18.082;2023-05-10T08:05:41;4.95;;;3.40;;
17650;SDS011;26663;59.302;18.082;2023-05-10T08:08:47;8.00;;;3.65;;
17650;SDS011;26663;59.302;18.082;2023-05-10T08:11:53;13.55;;;4.05;;
17650;SDS011;26663;59.302;18.082;2023-05-10T08:14:58;11.23;;;3.80;;
17650;SDS011;26663;59.302;18.082;2023-05-10T08:18:05;3.65;;;3.35;;
17650;SDS011;26663;59.302;18.082;2023-05-10T08:21:11;5.70;;;3.20;;
17650;SDS011;26663;59.302;18.082;2023-05-10T08:24:16;5.47;;;3.72;;
17650;SDS011;26663;59.302;18.082;2023-05-10T08:27:21;11.15;;;3.85;;
17650;SDS011;26663;59.302;18.082;2023-05-10T08:30:27;10.18;;;3.92;;
17650;SDS011;26663;59.302;18.082;2023-05-10T08:33:33;7.72;;;3.58;;
17650;SDS011;26663;59.302;18.082;2023-05-10T08:36:38;7.38;;;3.63;;
17650;SDS011;26663;59.302;18.082;2023-05-10T08:39:43;8.93;;;3.60;;
17650;SDS011;26663;59.302;18.082;2023-05-10T08:42:51;9.52;;;3.35;;
17650;SDS011;26663;59.302;18.082;2023-05-10T08:46:00;9.82;;;3.10;;
17650;SDS011;26663;59.302;18.082;2023-05-10T08:49:07;12.70;;;3.80;;
17650;SDS011;26663;59.302;18.082;2023-05-10T08:52:13;7.15;;;3.72;;
17650;SDS011;26663;59.302;18.082;2023-05-10T08:55:20;3.33;;;3.08;;
17650;SDS011;26663;59.302;18.082;2023-05-10T08:58:28;9.32;;;3.40;;
17650;SDS011;26663;59.302;18.082;2023-05-10T09:01:34;7.40;;;3.65;;
17650;SDS011;26663;59.302;18.082;2023-05-10T09:04:41;7.35;;;3.83;;
17650;SDS011;26663;59.302;18.082;2023-05-10T09:07:50;3.97;;;3.65;;
17650;SDS011;26663;59.302;18.082;2023-05-10T09:10:55;6.55;;;3.28;;
17650;SDS011;26663;59.302;18.082;2023-05-10T09:14:01;6.22;;;3.67;;
17650;SDS011;26663;59.302;18.082;2023-05-10T09:17:07;12.32;;;3.65;;
17650;SDS011;26663;59.302;18.082;2023-05-10T09:20:14;9.52;;;3.72;;
17650;SDS011;26663;59.302;18.082;2023-05-10T09:23:21;6.05;;;3.42;;
17650;SDS011;26663;59.302;18.082;2023-05-10T09:26:31;5.07;;;3.70;;
17650;SDS011;26663;59.302;18.082;2023-05-10T09:29:41;3.55;;;3.20;;
17650;SDS011;26663;59.302;18.082;2023-05-10T09:32:47;7.50;;;3.95;;
17650;SDS011;26663;59.302;18.082;2023-05-10T09:35:55;8.93;;;3.53;;
17650;SDS011;26663;59.302;18.082;2023-05-10T09:39:09;5.28;;;3.33;;
17650;SDS011;26663;59.302;18.082;2023-05-10T09:42:17;4.70;;;3.60;;
17650;SDS011;26663;59.302;18.082;2023-05-10T09:45:23;8.82;;;3.83;;
17650;SDS011;26663;59.302;18.082;2023-05-10T09:48:34;3.28;;;3.00;;
17650;SDS011;26663;59.302;18.082;2023-05-10T09:51:42;15.35;;;4.18;;
17650;SDS011;26663;59.302;18.082;2023-05-10T09:54:52;7.88;;;3.47;;
17650;SDS011;26663;59.302;18.082;2023-05-10T09:57:58;7.47;;;3.78;;
17650;SDS011;26663;59.302;18.082;2023-05-10T10:01:05;14.25;;;3.95;;
17650;SDS011;26663;59.302;18.082;2023-05-10T10:04:16;3.42;;;3.10;;
17650;SDS011;26663;59.302;18.082;2023-05-10T10:07:23;11.00;;;3.78;;
17650;SDS011;26663;59.302;18.082;2023-05-10T10:10:30;4.45;;;3.58;;
17650;SDS011;26663;59.302;18.082;2023-05-10T10:13:36;8.43;;;3.75;;
17650;SDS011;26663;59.302;18.082;2023-05-10T10:16:41;7.10;;;3.80;;
17650;SDS011;26663;59.302;18.082;2023-05-10T10:20:09;11.02;;;4.20;;
17650;SDS011;26663;59.302;18.082;2023-05-10T10:23:16;15.52;;;4.05;;
17650;SDS011;26663;59.302;18.082;2023-05-10T10:26:22;8.52;;;3.22;;
17650;SDS011;26663;59.302;18.082;2023-05-10T10:29:30;11.32;;;3.22;;
17650;SDS011;26663;59.302;18.082;2023-05-10T10:32:45;11.07;;;3.20;;
17650;SDS011;26663;59.302;18.082;2023-05-10T10:36:18;9.05;;;3.05;;
17650;SDS011;26663;59.302;18.082;2023-05-10T10:39:25;10.13;;;3.42;;
17650;SDS011;26663;59.302;18.082;2023-05-10T10:42:44;12.75;;;3.85;;
17650;SDS011;26663;59.302;18.082;2023-05-10T10:49:16;11.43;;;3.35;;
17650;SDS011;26663;59.302;18.082;2023-05-10T10:52:22;7.10;;;3.53;;
17650;SDS011;26663;59.302;18.082;2023-05-10T10:55:33;16.25;;;4.05;;
17650;SDS011;26663;59.302;18.082;2023-05-10T10:58:39;7.88;;;3.55;;
17650;SDS011;26663;59.302;18.082;2023-05-10T11:01:45;7.60;;;3.63;;
17650;SDS011;26663;59.302;18.082;2023-05-10T11:04:56;8.50;;;3.65;;
17650;SDS011;26663;59.302;18.082;2023-05-10T11:08:06;7.82;;;3.78;;
17650;SDS011;26663;59.302;18.082;2023-05-10T11:11:15;6.20;;;3.42;;
17650;SDS011;26663;59.302;18.082;2023-05-10T11:14:21;10.63;;;3.50;;
17650;SDS011;26663;59.302;18.082;2023-05-10T11:17:27;10.48;;;3.42;;
17650;SDS011;26663;59.302;18.082;2023-05-10T11:20:38;12.15;;;3.28;;
17650;SDS011;26663;59.302;18.082;2023-05-10T11:23:50;11.38;;;3.55;;
17650;SDS011;26663;59.302;18.082;2023-05-10T11:27:00;5.80;;;3.45;;
17650;SDS011;26663;59.302;18.082;2023-05-10T11:30:06;10.35;;;4.28;;
17650;SDS011;26663;59.302;18.082;2023-05-10T11:33:17;11.73;;;3.35;;
17650;SDS011;26663;59.302;18.082;2023-05-10T11:36:24;7.90;;;3.30;;
17650;SDS011;26663;59.302;18.082;2023-05-10T11:39:31;6.00;;;3.13;;
17650;SDS011;26663;59.302;18.082;2023-05-10T11:42:38;8.20;;;3.60;;
17650;SDS011;26663;59.302;18.082;2023-05-10T11:45:44;9.57;;;3.05;;
17650;SDS011;26663;59.302;18.082;2023-05-10T11:48:50;5.70;;;3.13;;
17650;SDS011;26663;59.302;18.082;2023-05-10T11:52:03;10.40;;;3.35;;
17650;SDS011;26663;59.302;18.082;2023-05-10T11:55:10;15.23;;;3.47;;
17650;SDS011;26663;59.302;18.082;2023-05-10T11:58:17;8.52;;;3.60;;
17650;SDS011;26663;59.302;18.082;2023-05-10T12:01:23;5.97;;;3.22;;
17650;SDS011;26663;59.302;18.082;2023-05-10T12:04:29;10.02;;;3.33;;
17650;SDS011;26663;59.302;18.082;2023-05-10T12:07:35;18.05;;;3.53;;
17650;SDS011;26663;59.302;18.082;2023-05-10T12:10:40;7.18;;;3.25;;
17650;SDS011;26663;59.302;18.082;2023-05-10T12:13:47;15.82;;;3.63;;
17650;SDS011;26663;59.302;18.082;2023-05-10T12:16:52;7.60;;;3.22;;
17650;SDS011;26663;59.302;18.082;2023-05-10T12:19:58;11.43;;;3.10;;
17650;SDS011;26663;59.302;18.082;2023-05-10T12:23:17;11.25;;;3.35;;
17650;SDS011;26663;59.302;18.082;2023-05-10T12:26:24;10.07;;;3.40;;
17650;SDS011;26663;59.302;18.082;2023-05-10T12:29:32;7.20;;;3.55;;
17650;SDS011;26663;59.302;18.082;2023-05-10T12:32:37;8.90;;;3.72;;
17650;SDS011;26663;59.302;18.082;2023-05-10T12:35:44;5.90;;;3.00;;
17650;SDS011;26663;59.302;18.082;2023-05-10T12:38:49;5.60;;;2.78;;
17650;SDS011;26663;59.302;18.082;2023-05-10T12:41:55;6.85;;;3.05;;
17650;SDS011;26663;59.302;18.082;2023-05-10T12:45:01;3.60;;;2.85;;
17650;SDS011;26663;59.302;18.082;2023-05-10T12:48:10;15.93;;;3.50;;
17650;SDS011;26663;59.302;18.082;2023-05-10T12:51:15;9.07;;;3.17;;
17650;SDS011;26663;59.302;18.082;2023-05-10T12:54:24;11.38;;;3.00;;
17650;SDS011;26663;59.302;18.082;2023-05-10T12:57:32;5.75;;;3.15;;
17650;SDS011;26663;59.302;18.082;2023-05-10T13:00:39;6.63;;;3.50;;
17650;SDS011;26663;59.302;18.082;2023-05-10T13:03:44;9.70;;;3.38;;
17650;SDS011;26663;59.302;18.082;2023-05-10T13:06:49;7.55;;;2.80;;
17650;SDS011;26663;59.302;18.082;2023-05-10T13:09:54;8.77;;;3.20;;
17650;SDS011;26663;59.302;18.082;2023-05-10T13:13:00;13.77;;;3.65;;
17650;SDS011;26663;59.302;18.082;2023-05-10T13:16:08;8.13;;;2.85;;
17650;SDS011;26663;59.302;18.082;2023-05-10T13:19:13;14.07;;;3.20;;
17650;SDS011;26663;59.302;18.082;2023-05-10T13:22:18;4.72;;;2.90;;
17650;SDS011;26663;59.302;18.082;2023-05-10T13:25:38;8.68;;;2.85;;
17650;SDS011;26663;59.302;18.082;2023-05-10T13:28:43;7.07;;;2.75;;
17650;SDS011;26663;59.302;18.082;2023-05-10T13:31:50;7.30;;;2.88;;
17650;SDS011;26663;59.302;18.082;2023-05-10T13:34:55;3.08;;;2.60;;
17650;SDS011;26663;59.302;18.082;2023-05-10T13:38:00;8.05;;;3.72;;
17650;SDS011;26663;59.302;18.082;2023-05-10T13:41:07;4.82;;;3.05;;
17650;SDS011;26663;59.302;18.082;2023-05-10T13:44:13;9.90;;;3.20;;
17650;SDS011;26663;59.302;18.082;2023-05-10T13:47:20;5.40;;;3.05;;
17650;SDS011;26663;59.302;18.082;2023-05-10T13:50:25;10.60;;;2.97;;
17650;SDS011;26663;59.302;18.082;2023-05-10T13:53:30;6.60;;;2.80;;
17650;SDS011;26663;59.302;18.082;2023-05-10T13:56:35;5.00;;;3.28;;
17650;SDS011;26663;59.302;18.082;2023-05-10T13:59:41;3.67;;;2.60;;
17650;SDS011;26663;59.302;18.082;2023-05-10T14:02:47;4.22;;;2.80;;
17650;SDS011;26663;59.302;18.082;2023-05-10T14:05:52;2.90;;;2.80;;
17650;SDS011;26663;59.302;18.082;2023-05-10T14:08:57;7.30;;;2.95;;
17650;SDS011;26663;59.302;18.082;2023-05-10T14:12:03;12.05;;;3.17;;
17650;SDS011;26663;59.302;18.082;2023-05-10T14:15:08;8.48;;;2.92;;
17650;SDS011;26663;59.302;18.082;2023-05-10T14:18:18;3.53;;;3.20;;
17650;SDS011;26663;59.302;18.082;2023-05-10T14:21:26;6.82;;;2.90;;
17650;SDS011;26663;59.302;18.082;2023-05-10T14:24:33;6.50;;;3.00;;
17650;SDS011;26663;59.302;18.082;2023-05-10T14:27:38;5.72;;;2.80;;
17650;SDS011;26663;59.302;18.082;2023-05-10T14:30:43;2.72;;;2.53;;
17650;SDS011;26663;59.302;18.082;2023-05-10T14:33:50;7.85;;;2.88;;
17650;SDS011;26663;59.302;18.082;2023-05-10T14:36:55;2.63;;;2.63;;
17650;SDS011;26663;59.302;18.082;2023-05-10T14:40:01;5.53;;;2.97;;
17650;SDS011;26663;59.302;18.082;2023-05-10T14:43:07;3.20;;;2.72;;
17650;SDS011;26663;59.302;18.082;2023-05-10T14:46:12;12.82;;;3.13;;
17650;SDS011;26663;59.302;18.082;2023-05-10T14:49:20;3.58;;;2.58;;
17650;SDS011;26663;59.302;18.082;2023-05-10T14:52:27;6.15;;;2.53;;
17650;SDS011;26663;59.302;18.082;2023-05-10T14:55:35;21.15;;;3.40;;
17650;SDS011;26663;59.302;18.082;2023-05-10T14:58:41;3.72;;;2.33;;
17650;SDS011;26663;59.302;18.082;2023-05-10T15:01:45;2.53;;;2.40;;
17650;SDS011;26663;59.302;18.082;2023-05-10T15:04:53;6.90;;;2.70;;
17650;SDS011;26663;59.302;18.082;2023-05-10T15:07:58;9.85;;;3.28;;
17650;SDS011;26663;59.302;18.082;2023-05-10T15:11:03;8.45;;;2.55;;
17650;SDS011;26663;59.302;18.082;2023-05-10T15:14:09;5.60;;;2.65;;
17650;SDS011;26663;59.302;18.082;2023-05-10T15:17:14;6.93;;;2.80;;
17650;SDS011;26663;59.302;18.082;2023-05-10T15:20:21;13.27;;;2.65;;
17650;SDS011;26663;59.302;18.082;2023-05-10T15:23:26;12.48;;;2.63;;
17650;SDS011;26663;59.302;18.082;2023-05-10T15:26:32;8.77;;;2.60;;
17650;SDS011;26663;59.302;18.082;2023-05-10T15:29:37;5.57;;;2.45;;
17650;SDS011;26663;59.302;18.082;2023-05-10T15:32:43;2.80;;;2.38;;
17650;SDS011;26663;59.302;18.082;2023-05-10T15:35:50;8.48;;;2.38;;
17650;SDS011;26663;59.302;18.082;2023-05-10T15:38:56;9.00;;;2.97;;
17650;SDS011;26663;59.302;18.082;2023-05-10T15:42:01;8.00;;;2.67;;
17650;SDS011;26663;59.302;18.082;2023-05-10T15:45:09;20.42;;;2.70;;
17650;SDS011;26663;59.302;18.082;2023-05-10T15:48:14;4.88;;;2.60;;
17650;SDS011;26663;59.302;18.082;2023-05-10T15:51:21;11.57;;;3.80;;
17650;SDS011;26663;59.302;18.082;2023-05-10T15:54:27;4.95;;;2.80;;
17650;SDS011;26663;59.302;18.082;2023-05-10T15:57:33;3.55;;;3.35;;
17650;SDS011;26663;59.302;18.082;2023-05-10T16:00:38;3.97;;;3.45;;
17650;SDS011;26663;59.302;18.082;2023-05-10T16:03:43;9.32;;;3.95;;
17650;SDS011;26663;59.302;18.082;2023-05-10T16:06:50;7.72;;;2.35;;
17650;SDS011;26663;59.302;18.082;2023-05-10T16:09:55;2.58;;;2.38;;
17650;SDS011;26663;59.302;18.082;2023-05-10T16:13:00;4.53;;;2.63;;
17650;SDS011;26663;59.302;18.082;2023-05-10T16:16:06;9.00;;;3.08;;
17650;SDS011;26663;59.302;18.082;2023-05-10T16:19:12;5.97;;;2.63;;
17650;SDS011;26663;59.302;18.082;2023-05-10T16:22:19;6.72;;;2.35;;
17650;SDS011;26663;59.302;18.082;2023-05-10T16:25:28;6.78;;;2.50;;
17650;SDS011;26663;59.302;18.082;2023-05-10T16:28:33;10.45;;;2.60;;
17650;SDS011;26663;59.302;18.082;2023-05-10T16:31:39;3.70;;;2.47;;
17650;SDS011;26663;59.302;18.082;2023-05-10T16:34:44;2.55;;;2.45;;
17650;SDS011;26663;59.302;18.082;2023-05-10T16:37:50;2.53;;;2.33;;
17650;SDS011;26663;59.302;18.082;2023-05-10T16:40:56;4.07;;;2.45;;
17650;SDS011;26663;59.302;18.082;2023-05-10T16:44:02;3.17;;;2.60;;
17650;SDS011;26663;59.302;18.082;2023-05-10T16:47:08;3.10;;;2.65;;
17650;SDS011;26663;59.302;18.082;2023-05-10T16:50:13;3.90;;;2.55;;
17650;SDS011;26663;59.302;18.082;2023-05-10T16:53:22;3.55;;;3.03;;
17650;SDS011;26663;59.302;18.082;2023-05-10T16:56:28;2.63;;;2.53;;
17650;SDS011;26663;59.302;18.082;2023-05-10T16:59:33;6.22;;;2.50;;
17650;SDS011;26663;59.302;18.082;2023-05-10T17:02:38;4.97;;;2.45;;
17650;SDS011;26663;59.302;18.082;2023-05-10T17:05:43;2.75;;;2.60;;
17650;SDS011;26663;59.302;18.082;2023-05-10T17:08:50;2.50;;;2.40;;
17650;SDS011;26663;59.302;18.082;2023-05-10T17:11:55;6.90;;;3.03;;
17650;SDS011;26663;59.302;18.082;2023-05-10T17:15:00;2.55;;;2.45;;
17650;SDS011;26663;59.302;18.082;2023-05-10T17:18:08;4.25;;;3.00;;
17650;SDS011;26663;59.302;18.082;2023-05-10T17:21:13;9.80;;;2.90;;
17650;SDS011;26663;59.302;18.082;2023-05-10T17:24:20;2.72;;;2.38;;
17650;SDS011;26663;59.302;18.082;2023-05-10T17:27:25;6.20;;;3.38;;
17650;SDS011;26663;59.302;18.082;2023-05-10T17:30:31;5.25;;;2.40;;
17650;SDS011;26663;59.302;18.082;2023-05-10T17:33:37;6.28;;;2.60;;
17650;SDS011;26663;59.302;18.082;2023-05-10T17:36:42;5.13;;;2.38;;
17650;SDS011;26663;59.302;18.082;2023-05-10T17:39:49;9.23;;;2.90;;
17650;SDS011;26663;59.302;18.082;2023-05-10T17:42:54;6.45;;;2.80;;
17650;SDS011;26663;59.302;18.082;2023-05-10T17:45:59;6.90;;;3.15;;
17650;SDS011;26663;59.302;18.082;2023-05-10T17:49:05;5.47;;;2.70;;
17650;SDS011;26663;59.302;18.082;2023-05-10T17:52:10;12.25;;;2.70;;
17650;SDS011;26663;59.302;18.082;2023-05-10T17:55:17;3.35;;;2.30;;
17650;SDS011;26663;59.302;18.082;2023-05-10T17:58:22;12.23;;;2.58;;
17650;SDS011;26663;59.302;18.082;2023-05-10T18:01:27;3.78;;;2.47;;
17650;SDS011;26663;59.302;18.082;2023-05-10T18:04:33;7.15;;;2.63;;
17650;SDS011;26663;59.302;18.082;2023-05-10T18:07:38;2.92;;;2.72;;
17650;SDS011;26663;59.302;18.082;2023-05-10T18:10:44;5.60;;;3.00;;
17650;SDS011;26663;59.302;18.082;2023-05-10T18:13:50;3.30;;;2.45;;
17650;SDS011;26663;59.302;18.082;2023-05-10T18:16:57;6.13;;;2.50;;
17650;SDS011;26663;59.302;18.082;2023-05-10T18:20:02;3.42;;;3.00;;
17650;SDS011;26663;59.302;18.082;2023-05-10T18:23:11;3.70;;;2.85;;
17650;SDS011;26663;59.302;18.082;2023-05-10T18:26:18;2.33;;;2.22;;
17650;SDS011;26663;59.302;18.082;2023-05-10T18:29:24;2.65;;;2.45;;
17650;SDS011;26663;59.302;18.082;2023-05-10T18:32:29;2.78;;;2.60;;
17650;SDS011;26663;59.302;18.082;2023-05-10T18:35:35;2.63;;;2.42;;